createdAt,value
2019-02-25T00:00:50.826Z,-0.2
2019-02-25T00:01:50.721Z,-0.2
2019-02-25T00:02:50.617Z,-0.2
2019-02-25T00:03:50.539Z,-0.3
2019-02-25T00:04:50.435Z,-0.3
2019-02-25T00:05:50.316Z,-0.2
2019-02-25T00:06:50.275Z,-0.3
2019-02-25T00:07:50.165Z,-0.3
2019-02-25T00:08:50.065Z,-0.3
2019-02-25T00:09:49.973Z,-0.3
2019-02-25T00:10:50.293Z,-0.3
2019-02-25T00:11:50.179Z,-0.2
2019-02-25T00:12:50.064Z,-0.2
2019-02-25T00:13:49.953Z,-0.2
2019-02-25T00:14:49.884Z,-0.2
2019-02-25T00:15:49.767Z,-0.2
2019-02-25T00:16:49.649Z,-0.2
2019-02-25T00:17:49.533Z,-0.2
2019-02-25T00:18:49.429Z,-0.2
2019-02-25T00:19:49.336Z,-0.2
2019-02-25T00:20:49.645Z,-0.2
2019-02-25T00:21:49.519Z,-0.2
2019-02-25T00:22:49.387Z,-0.2
2019-02-25T00:23:49.267Z,-0.1
2019-02-25T00:24:49.237Z,-0.2
2019-02-25T00:25:49.117Z,-0.2
2019-02-25T00:26:49.028Z,-0.1
2019-02-25T00:27:48.899Z,-0.2
2019-02-25T00:28:48.779Z,-0.1
2019-02-25T00:29:48.669Z,-0.1
2019-02-25T00:30:49.003Z,-0.2
2019-02-25T00:31:48.883Z,-0.2
2019-02-25T00:32:48.773Z,-0.2
2019-02-25T00:33:48.653Z,-0.2
2019-02-25T00:34:48.539Z,-0.1
2019-02-25T00:35:48.453Z,-0.2
2019-02-25T00:36:48.329Z,-0.2
2019-02-25T00:37:48.273Z,-0.2
2019-02-25T00:38:48.158Z,-0.1
2019-02-25T00:39:48.043Z,-0.2
2019-02-25T00:40:48.377Z,-0.2
2019-02-25T00:41:48.271Z,-0.3
2019-02-25T00:42:48.148Z,-0.3
2019-02-25T00:43:48.024Z,-0.3
2019-02-25T00:44:47.919Z,-0.3
2019-02-25T00:45:47.834Z,-0.3
2019-02-25T00:46:47.751Z,-0.3
2019-02-25T00:47:47.639Z,-0.3
2019-02-25T00:48:47.513Z,-0.3
2019-02-25T00:49:47.399Z,-0.4
2019-02-25T00:50:47.725Z,-0.4
2019-02-25T00:51:47.627Z,-0.4
2019-02-25T00:52:47.578Z,-0.4
2019-02-25T00:53:47.543Z,-0.4
2019-02-25T00:54:47.453Z,-0.4
2019-02-25T00:55:47.346Z,-0.4
2019-02-25T00:56:47.277Z,-0.4
2019-02-25T00:57:47.203Z,-0.4
2019-02-25T00:58:47.099Z,-0.5
2019-02-25T00:59:47.008Z,-0.5
2019-02-25T01:00:47.337Z,-0.5
2019-02-25T01:01:47.218Z,-0.5
2019-02-25T01:02:47.145Z,-0.5
2019-02-25T01:03:47.049Z,-0.5
2019-02-25T01:04:46.941Z,-0.5
2019-02-25T01:05:46.822Z,-0.5
2019-02-25T01:06:46.719Z,-0.5
2019-02-25T01:07:46.592Z,-0.6
2019-02-25T01:08:46.558Z,-0.6
2019-02-25T01:09:46.460Z,-0.6
2019-02-25T01:10:46.764Z,-0.7
2019-02-25T01:11:46.655Z,-0.7
2019-02-25T01:12:46.557Z,-0.7
2019-02-25T01:13:46.574Z,-0.7
2019-02-25T01:14:46.471Z,-0.7
2019-02-25T01:15:46.363Z,-0.7
2019-02-25T01:16:46.251Z,-0.7
2019-02-25T01:17:46.125Z,-0.7
2019-02-25T01:18:46.022Z,-0.7
2019-02-25T01:19:45.931Z,-0.7
2019-02-25T01:20:46.239Z,-0.7
2019-02-25T01:21:46.126Z,-0.7
2019-02-25T01:22:46.022Z,-0.8
2019-02-25T01:23:45.916Z,-0.8
2019-02-25T01:24:45.822Z,-0.8
2019-02-25T01:25:45.712Z,-0.8
2019-02-25T01:26:45.638Z,-0.8
2019-02-25T01:27:45.526Z,-0.7
2019-02-25T01:28:45.420Z,-0.7
2019-02-25T01:29:45.311Z,-0.8
2019-02-25T01:30:45.626Z,-0.8
2019-02-25T01:31:45.551Z,-0.8
2019-02-25T01:32:45.443Z,-0.8
2019-02-25T01:33:45.328Z,-0.7
2019-02-25T01:34:45.207Z,-0.7
2019-02-25T01:35:45.099Z,-0.7
2019-02-25T01:36:44.987Z,-0.6
2019-02-25T01:37:44.875Z,-0.6
2019-02-25T01:38:44.780Z,-0.6
2019-02-25T01:39:44.671Z,-0.6
2019-02-25T01:40:44.983Z,-0.7
2019-02-25T01:41:44.875Z,-0.7
2019-02-25T01:42:44.762Z,-0.7
2019-02-25T01:43:44.690Z,-0.7
2019-02-25T01:44:44.594Z,-0.7
2019-02-25T01:45:44.476Z,-0.7
2019-02-25T01:46:44.398Z,-0.6
2019-02-25T01:47:44.340Z,-0.6
2019-02-25T01:48:44.247Z,-0.6
2019-02-25T01:49:44.136Z,-0.6
2019-02-25T01:50:44.495Z,-0.6
2019-02-25T01:51:44.387Z,-0.6
2019-02-25T01:52:44.283Z,-0.6
2019-02-25T01:53:44.199Z,-0.6
2019-02-25T01:54:44.084Z,-0.6
2019-02-25T01:55:43.987Z,-0.6
2019-02-25T01:56:43.888Z,-0.6
2019-02-25T01:57:43.793Z,-0.6
2019-02-25T01:58:43.707Z,-0.7
2019-02-25T01:59:43.588Z,-0.7
2019-02-25T02:00:44.894Z,-0.7
2019-02-25T02:01:44.780Z,-0.7
2019-02-25T02:02:44.683Z,-0.7
2019-02-25T02:03:44.562Z,-0.7
2019-02-25T02:04:44.451Z,-0.6
2019-02-25T02:05:44.356Z,-0.7
2019-02-25T02:06:47.143Z,-0.7
2019-02-25T02:07:47.041Z,-0.6
2019-02-25T02:08:46.956Z,-0.6
2019-02-25T02:09:46.844Z,-0.7
2019-02-25T02:10:47.396Z,-0.7
2019-02-25T02:11:47.283Z,-0.6
2019-02-25T02:12:47.188Z,-0.7
2019-02-25T02:13:47.112Z,-0.7
2019-02-25T02:14:46.995Z,-0.7
2019-02-25T02:15:46.886Z,-0.7
2019-02-25T02:16:46.764Z,-0.7
2019-02-25T02:17:46.644Z,-0.7
2019-02-25T02:18:46.538Z,-0.7
2019-02-25T02:19:46.414Z,-0.7
2019-02-25T02:20:46.739Z,-0.7
2019-02-25T02:21:46.622Z,-0.7
2019-02-25T02:22:46.512Z,-0.6
2019-02-25T02:23:46.428Z,-0.6
2019-02-25T02:24:46.318Z,-0.6
2019-02-25T02:25:46.214Z,-0.6
2019-02-25T02:26:46.120Z,-0.6
2019-02-25T02:27:45.996Z,-0.6
2019-02-25T02:28:45.908Z,-0.6
2019-02-25T02:29:45.789Z,-0.6
2019-02-25T02:30:46.162Z,-0.6
2019-02-25T02:31:46.052Z,-0.6
2019-02-25T02:32:46.053Z,-0.6
2019-02-25T02:33:45.948Z,-0.6
2019-02-25T02:34:45.882Z,-0.7
2019-02-25T02:35:45.772Z,-0.7
2019-02-25T02:36:45.692Z,-0.7
2019-02-25T02:37:45.682Z,-0.7
2019-02-25T02:38:45.664Z,-0.8
2019-02-25T02:39:45.580Z,-0.8
2019-02-25T02:40:45.929Z,-0.9
2019-02-25T02:41:45.822Z,-0.9
2019-02-25T02:42:45.755Z,-0.9
2019-02-25T02:43:45.663Z,-0.9
2019-02-25T02:44:45.570Z,-0.9
2019-02-25T02:45:45.507Z,-1
2019-02-25T02:46:45.422Z,-1.1
2019-02-25T02:47:45.550Z,-1.1
2019-02-25T02:48:45.438Z,-1.1
2019-02-25T02:49:45.322Z,-1.1
2019-02-25T02:50:45.671Z,-1.1
2019-02-25T02:51:45.559Z,-1.1
2019-02-25T02:52:45.451Z,-1.1
2019-02-25T02:53:45.344Z,-1.1
2019-02-25T02:54:45.268Z,-1.1
2019-02-25T02:55:45.164Z,-1.1
2019-02-25T02:56:45.066Z,-1.1
2019-02-25T02:57:44.980Z,-1.1
2019-02-25T02:58:44.866Z,-1.1
2019-02-25T02:59:44.794Z,-1.1
2019-02-25T03:00:46.216Z,-1.1
2019-02-25T03:01:46.147Z,-1.1
2019-02-25T03:02:46.049Z,-1.2
2019-02-25T03:03:46.040Z,-1.2
2019-02-25T03:04:45.935Z,-1.2
2019-02-25T03:05:45.823Z,-1.1
2019-02-25T03:06:45.745Z,-1.1
2019-02-25T03:07:45.662Z,-1.1
2019-02-25T03:08:45.570Z,-1.1
2019-02-25T03:09:45.481Z,-1.2
2019-02-25T03:10:45.896Z,-1.2
2019-02-25T03:11:45.797Z,-1.1
2019-02-25T03:12:45.807Z,-1.1
2019-02-25T03:13:45.694Z,-1.1
2019-02-25T03:14:45.600Z,-1.1
2019-02-25T03:15:45.488Z,-1.1
2019-02-25T03:16:45.396Z,-1.1
2019-02-25T03:17:45.292Z,-1.1
2019-02-25T03:18:45.193Z,-1.1
2019-02-25T03:19:45.100Z,-1.1
2019-02-25T03:20:45.441Z,-1.1
2019-02-25T03:21:45.337Z,-1.1
2019-02-25T03:22:45.395Z,-1.1
2019-02-25T03:23:45.295Z,-1.1
2019-02-25T03:24:45.210Z,-1.1
2019-02-25T03:25:46.139Z,-1.1
2019-02-25T03:26:48.607Z,-1.1
2019-02-25T03:27:48.516Z,-1.1
2019-02-25T03:28:49.427Z,-1.1
2019-02-25T03:29:49.327Z,-1.1
2019-02-25T03:30:49.682Z,-1.1
2019-02-25T03:31:49.705Z,-1.1
2019-02-25T03:32:49.678Z,-1.1
2019-02-25T03:33:49.630Z,-1.1
2019-02-25T03:34:49.573Z,-1.1
2019-02-25T03:35:49.523Z,-1.1
2019-02-25T03:36:49.440Z,-1.1
2019-02-25T03:37:49.334Z,-1.1
2019-02-25T03:38:49.243Z,-1.1
2019-02-25T03:39:49.168Z,-1.1
2019-02-25T03:40:49.491Z,-1.1
2019-02-25T03:41:49.398Z,-1.1
2019-02-25T03:42:49.289Z,-1.1
2019-02-25T03:43:49.203Z,-1.1
2019-02-25T03:44:49.121Z,-1.1
2019-02-25T03:45:49.033Z,-1.1
2019-02-25T03:46:48.927Z,-1.1
2019-02-25T03:47:48.812Z,-1.1
2019-02-25T03:48:48.820Z,-1.1
2019-02-25T03:49:48.815Z,-1.1
2019-02-25T03:50:49.185Z,-1.2
2019-02-25T04:00:48.267Z,-0.5
2019-02-25T04:01:48.171Z,-0.5
2019-02-25T04:02:48.075Z,-0.6
2019-02-25T04:03:47.966Z,-0.6
2019-02-25T04:04:47.889Z,-0.6
2019-02-25T04:05:47.835Z,-0.6
2019-02-25T04:06:47.774Z,-0.7
2019-02-25T04:07:47.670Z,-0.7
2019-02-25T04:08:47.566Z,-0.8
2019-02-25T04:09:47.469Z,-0.9
2019-02-25T04:10:47.781Z,-1
2019-02-25T04:30:43.633Z,-0.6
2019-02-25T04:31:43.566Z,-0.6
2019-02-25T04:32:43.517Z,-0.6
2019-02-25T04:33:43.450Z,-0.7
2019-02-25T04:34:43.398Z,-0.7
2019-02-25T04:35:43.340Z,-0.8
2019-02-25T04:36:43.246Z,-0.9
2019-02-25T04:37:43.145Z,-0.9
2019-02-25T04:38:43.098Z,-1
2019-02-25T04:39:42.994Z,-1
2019-02-25T04:40:43.316Z,-1.1
2019-02-25T05:00:39.181Z,-0.8
2019-02-25T05:01:39.075Z,-0.8
2019-02-25T05:02:38.963Z,-0.9
2019-02-25T05:03:38.916Z,-0.9
2019-02-25T05:04:38.801Z,-1
2019-02-25T05:05:38.699Z,-1
2019-02-25T05:06:38.606Z,-1.1
2019-02-25T05:07:38.510Z,-1.1
2019-02-25T05:08:38.390Z,-1.1
2019-02-25T05:09:38.358Z,-1.2
2019-02-25T05:10:38.700Z,-1.2
2019-02-25T05:11:38.592Z,-1.2
2019-02-25T05:12:38.566Z,-1.3
2019-02-25T05:13:38.472Z,-1.3
2019-02-25T05:14:38.406Z,-1.3
2019-02-25T05:15:38.292Z,-1.3
2019-02-25T05:16:40.599Z,-1.3
2019-02-25T05:17:40.492Z,-1.3
2019-02-25T05:18:40.388Z,-1.4
2019-02-25T05:19:40.337Z,-1.4
2019-02-25T05:20:40.645Z,-1.4
2019-02-25T05:30:38.943Z,-1
2019-02-25T05:31:38.838Z,-1
2019-02-25T05:32:38.733Z,-1
2019-02-25T05:33:38.632Z,-1.1
2019-02-25T05:34:38.556Z,-1.1
2019-02-25T05:35:38.460Z,-1.1
2019-02-25T05:36:38.350Z,-1.1
2019-02-25T05:37:38.292Z,-1.2
2019-02-25T05:38:38.214Z,-1.2
2019-02-25T05:39:38.112Z,-1.3
2019-02-25T05:40:38.480Z,-1.3
2019-02-25T05:50:36.599Z,-0.9
2019-02-25T05:51:36.509Z,-0.9
2019-02-25T05:52:36.400Z,-1
2019-02-25T05:53:36.288Z,-1
2019-02-25T05:54:36.186Z,-1.1
2019-02-25T05:55:36.099Z,-1.1
2019-02-25T05:56:36.065Z,-1.2
2019-02-25T05:57:36.068Z,-1.2
2019-02-25T05:58:35.950Z,-1.2
2019-02-25T05:59:35.835Z,-1.3
2019-02-25T06:00:36.144Z,-1.3
2019-02-25T06:01:36.025Z,-1.4
2019-02-25T06:20:32.131Z,-0.7
2019-02-25T06:21:32.030Z,-0.7
2019-02-25T06:22:31.938Z,-0.8
2019-02-25T06:23:31.826Z,-0.9
2019-02-25T06:24:31.821Z,-0.9
2019-02-25T06:25:31.778Z,-0.9
2019-02-25T06:26:31.702Z,-1.1
2019-02-25T06:27:31.683Z,-1.1
2019-02-25T06:28:31.567Z,-1.1
2019-02-25T06:29:31.491Z,-1.2
2019-02-25T06:30:31.828Z,-1.2
2019-02-25T06:31:31.735Z,-1.2
2019-02-25T06:32:31.617Z,-1.3
2019-02-25T06:33:31.503Z,-1.3
2019-02-25T06:34:31.407Z,-1.3
2019-02-25T06:35:31.307Z,-1.4
2019-02-25T06:36:31.201Z,-1.4
2019-02-25T06:37:31.097Z,-1.4
2019-02-25T06:38:30.989Z,-1.4
2019-02-25T06:39:30.871Z,-1.4
2019-02-25T06:40:31.280Z,-1.4
2019-02-25T06:41:31.178Z,-1.4
2019-02-25T06:42:31.063Z,-1.4
2019-02-25T06:43:30.950Z,-1.4
2019-02-25T06:44:30.833Z,-1.4
2019-02-25T06:45:31.901Z,-1.3
2019-02-25T06:46:31.798Z,-1.3
2019-02-25T06:47:31.687Z,-1.3
2019-02-25T06:48:31.555Z,-1.2
2019-02-25T06:49:31.463Z,-1.2
2019-02-25T06:50:31.813Z,-1.2
2019-02-25T06:51:31.713Z,-1.2
2019-02-25T06:52:31.602Z,-1.1
2019-02-25T06:53:31.495Z,-1.1
2019-02-25T06:54:31.381Z,-1
2019-02-25T06:55:31.265Z,-1
2019-02-25T06:56:31.183Z,-0.9
2019-02-25T06:57:31.070Z,-0.9
2019-02-25T06:58:30.967Z,-0.8
2019-02-25T06:59:30.845Z,-0.7
2019-02-25T07:00:31.195Z,-0.6
2019-02-25T07:01:31.107Z,-0.5
2019-02-25T07:02:31.007Z,-0.5
2019-02-25T07:03:30.893Z,-0.3
2019-02-25T07:04:30.779Z,-0.3
2019-02-25T07:05:30.651Z,-0.2
2019-02-25T07:06:30.573Z,-0.1
2019-02-25T07:07:30.487Z,0
2019-02-25T07:08:30.385Z,0
2019-02-25T07:09:30.281Z,0.2
2019-02-25T07:10:30.583Z,0.2
2019-02-25T07:11:30.518Z,0.4
2019-02-25T07:20:28.697Z,1.4
2019-02-25T07:21:28.599Z,1.4
2019-02-25T07:22:28.506Z,1.4
2019-02-25T07:23:28.380Z,1.4
2019-02-25T07:24:28.288Z,1.4
2019-02-25T07:25:28.169Z,1.4
2019-02-25T07:26:28.211Z,1.4
2019-02-25T07:27:28.123Z,1.4
2019-02-25T07:28:28.005Z,1.4
2019-02-25T07:29:27.935Z,1.4
2019-02-25T07:30:28.319Z,1.5
2019-02-25T07:31:28.239Z,1.5
2019-02-25T07:32:30.079Z,1.6
2019-02-25T07:40:28.837Z,2.6
2019-02-25T07:41:28.759Z,2.6
2019-02-25T07:42:28.639Z,2.6
2019-02-25T07:43:28.514Z,2.6
2019-02-25T07:44:28.419Z,2.6
2019-02-25T07:45:28.319Z,2.6
2019-02-25T07:46:28.228Z,2.6
2019-02-25T07:47:28.167Z,2.7
2019-02-25T07:48:28.057Z,2.7
2019-02-25T07:49:27.953Z,2.8
2019-02-25T07:50:28.275Z,2.9
2019-02-25T07:51:28.167Z,3
2019-02-25T07:52:28.093Z,3.1
2019-02-25T07:53:27.984Z,3.4
2019-02-25T07:54:27.894Z,3.6
2019-02-25T07:55:27.832Z,3.7
2019-02-25T07:59:26.977Z,4.4
2019-02-25T08:00:27.282Z,4.4
2019-02-25T08:01:27.188Z,4.4
2019-02-25T08:02:27.080Z,4.5
2019-02-25T08:05:26.439Z,4.9
2019-02-25T08:06:26.341Z,4.9
2019-02-25T08:07:26.229Z,5.1
2019-02-25T08:08:26.147Z,5.2
2019-02-25T08:09:26.070Z,5.3
2019-02-25T08:10:26.446Z,5.3
2019-02-25T08:11:26.338Z,5.3
2019-02-25T08:12:26.231Z,5.3
2019-02-25T08:13:26.126Z,5.3
2019-02-25T08:14:26.057Z,5.5
2019-02-25T08:15:25.947Z,5.6
2019-02-25T08:16:25.841Z,5.6
2019-02-25T08:17:25.893Z,5.7
2019-02-25T08:18:25.786Z,5.7
2019-02-25T08:19:25.710Z,5.7
2019-02-25T08:20:26.098Z,5.8
2019-02-25T08:21:26.053Z,5.7
2019-02-25T08:22:25.943Z,5.8
2019-02-25T08:23:25.870Z,5.6
2019-02-25T08:24:31.414Z,5.5
2019-02-25T08:25:31.320Z,5.6
2019-02-25T08:26:31.218Z,5.5
2019-02-25T08:27:31.116Z,5.6
2019-02-25T08:28:33.170Z,5.6
2019-02-25T08:29:33.050Z,5.6
2019-02-25T08:30:33.374Z,5.8
2019-02-25T08:31:33.268Z,5.8
2019-02-25T08:32:33.160Z,5.7
2019-02-25T08:33:33.084Z,5.7
2019-02-25T08:34:32.972Z,5.7
2019-02-25T08:35:32.866Z,5.9
2019-02-25T08:36:32.760Z,6
2019-02-25T08:37:32.667Z,6.1
2019-02-25T08:38:32.580Z,6.1
2019-02-25T08:39:32.481Z,6.1
2019-02-25T08:40:32.790Z,6.1
2019-02-25T08:41:32.668Z,6.1
2019-02-25T08:42:32.572Z,6.2
2019-02-25T08:43:32.468Z,6.3
2019-02-25T08:44:32.362Z,6.4
2019-02-25T08:45:32.247Z,6.5
2019-02-25T08:46:32.131Z,6.5
2019-02-25T08:47:32.028Z,6.4
2019-02-25T08:48:31.941Z,6.5
2019-02-25T08:49:31.843Z,6.4
2019-02-25T08:50:32.155Z,6.4
2019-02-25T08:51:32.074Z,6.5
2019-02-25T08:52:32.010Z,6.5
2019-02-25T08:53:31.916Z,6.5
2019-02-25T08:54:31.798Z,6.5
2019-02-25T08:55:31.715Z,6.5
2019-02-25T08:56:31.606Z,6.6
2019-02-25T08:57:31.494Z,6.7
2019-02-25T08:58:31.388Z,6.7
2019-02-25T08:59:31.279Z,6.7
2019-02-25T09:00:31.656Z,6.9
2019-02-25T09:01:31.562Z,7
2019-02-25T09:02:31.467Z,7
2019-02-25T09:03:31.350Z,7.1
2019-02-25T09:04:31.233Z,7.2
2019-02-25T09:05:31.139Z,7.4
2019-02-25T09:06:31.063Z,7.5
2019-02-25T09:07:30.954Z,7.5
2019-02-25T09:08:30.844Z,7.5
2019-02-25T09:09:30.726Z,7.5
2019-02-25T09:10:31.071Z,7.6
2019-02-25T09:11:30.979Z,7.6
2019-02-25T09:12:30.882Z,7.6
2019-02-25T09:13:30.787Z,7.5
2019-02-25T09:14:30.685Z,7.6
2019-02-25T09:15:32.885Z,7.7
2019-02-25T09:16:32.808Z,7.8
2019-02-25T09:17:32.702Z,8
2019-02-25T09:18:32.584Z,8
2019-02-25T09:19:32.476Z,8
2019-02-25T09:20:32.874Z,8
2019-02-25T09:21:32.880Z,8.1
2019-02-25T09:22:32.758Z,8.2
2019-02-25T09:23:32.663Z,8.2
2019-02-25T09:24:32.568Z,8.2
2019-02-25T09:25:32.464Z,8.3
2019-02-25T09:26:32.340Z,8.3
2019-02-25T09:27:32.267Z,8.2
2019-02-25T09:28:32.152Z,8.2
2019-02-25T09:29:32.044Z,8.1
2019-02-25T09:33:28.629Z,8.2
2019-02-25T09:34:28.534Z,8.2
2019-02-25T09:35:28.431Z,8.3
2019-02-25T09:36:28.334Z,8.2
2019-02-25T09:37:28.217Z,8.3
2019-02-25T09:38:28.122Z,8.2
2019-02-25T09:39:28.019Z,8.2
2019-02-25T09:40:27.934Z,8
2019-02-25T09:41:30.828Z,7.9
2019-02-25T09:42:30.728Z,7.7
2019-02-25T09:43:31.090Z,7.7
2019-02-25T09:44:31.021Z,7.5
2019-02-25T09:45:30.929Z,7.2
2019-02-25T09:46:30.813Z,7.2
2019-02-25T09:47:30.716Z,7.1
2019-02-25T09:48:30.613Z,7.2
2019-02-25T09:49:30.519Z,7.1
2019-02-25T09:50:30.474Z,7
2019-02-25T09:51:30.389Z,7
2019-02-25T09:52:30.298Z,7
2019-02-25T09:53:30.669Z,7.1
2019-02-25T09:54:30.573Z,7.1
2019-02-25T09:55:30.468Z,7
2019-02-25T09:56:30.365Z,6.9
2019-02-25T09:57:30.259Z,7.1
2019-02-25T09:58:30.152Z,7.2
2019-02-25T09:59:30.061Z,7.3
2019-02-25T10:00:29.985Z,7.1
2019-02-25T10:01:29.877Z,7.1
2019-02-25T10:02:29.782Z,7.2
2019-02-25T10:03:30.240Z,7.1
2019-02-25T10:04:30.151Z,7.3
2019-02-25T10:05:30.047Z,7.4
2019-02-25T10:06:29.936Z,7.5
2019-02-25T10:07:29.816Z,7.6
2019-02-25T10:08:29.704Z,7.6
2019-02-25T10:09:32.901Z,7.7
2019-02-25T10:10:32.807Z,7.7
2019-02-25T10:11:32.693Z,7.7
2019-02-25T10:12:32.571Z,7.6
2019-02-25T10:13:32.949Z,7.6
2019-02-25T10:14:32.952Z,7.6
2019-02-25T10:15:32.846Z,7.7
2019-02-25T10:16:32.735Z,7.7
2019-02-25T10:17:32.637Z,7.5
2019-02-25T10:18:32.522Z,7.5
2019-02-25T10:19:32.412Z,7.6
2019-02-25T10:20:34.610Z,7.6
2019-02-25T10:21:34.512Z,7.7
2019-02-25T10:22:36.845Z,7.8
2019-02-25T10:23:37.171Z,7.8
2019-02-25T10:24:37.105Z,7.8
2019-02-25T10:25:37.013Z,7.7
2019-02-25T10:26:36.911Z,7.7
2019-02-25T10:27:36.857Z,7.7
2019-02-25T10:28:36.771Z,7.6
2019-02-25T10:29:36.668Z,7.5
2019-02-25T10:30:36.631Z,7.4
2019-02-25T10:31:43.337Z,7.2
2019-02-25T10:32:43.786Z,7
2019-02-25T10:33:44.167Z,6.9
2019-02-25T10:34:44.048Z,7
2019-02-25T10:35:43.977Z,6
2019-02-25T10:36:48.124Z,6.9
2019-02-25T10:37:52.185Z,7.1
2019-02-25T10:43:01.451Z,8.4
2019-02-25T10:44:09.009Z,8.4
2019-02-25T10:53:53.958Z,9.1
2019-02-25T10:54:58.701Z,9.1
2019-02-25T10:55:58.609Z,9
2019-02-25T10:56:58.529Z,8.9
2019-02-25T10:58:04.075Z,8.8
2019-02-25T10:59:08.456Z,8.8
2019-02-25T11:00:13.646Z,8.7
2019-02-25T11:01:22.626Z,8.6
2019-02-25T11:02:24.592Z,8.7
2019-02-25T11:03:24.497Z,8.7
2019-02-25T11:04:26.737Z,8.7
2019-02-25T11:05:31.081Z,8.7
2019-02-25T11:06:37.980Z,8.6
2019-02-25T11:07:42.388Z,8.7
2019-02-25T11:08:46.151Z,8.8
2019-02-25T11:09:50.583Z,8.9
2019-02-25T11:10:55.205Z,8.8
2019-02-25T11:12:00.429Z,8.8
2019-02-25T11:13:04.671Z,8.8
2019-02-25T11:14:09.508Z,8.9
2019-02-25T11:15:14.339Z,8.9
2019-02-25T11:16:20.918Z,8.8
2019-02-25T11:17:24.822Z,8.7
2019-02-25T11:18:28.826Z,8.6
2019-02-25T11:19:32.897Z,8.5
2019-02-25T11:20:37.773Z,8.5
2019-02-25T11:21:42.134Z,8.6
2019-02-25T11:22:48.662Z,8.7
2019-02-25T11:23:53.601Z,8.7
2019-02-25T11:24:58.007Z,8.7
2019-02-25T11:26:02.163Z,8.7
2019-02-25T11:27:08.031Z,8.7
2019-02-25T11:28:25.842Z,8.7
2019-02-25T11:29:26.153Z,8.8
2019-02-25T11:30:26.062Z,8.8
2019-02-25T11:31:29.639Z,8.9
2019-02-25T11:32:29.536Z,8.9
2019-02-25T11:33:34.588Z,8.8
2019-02-25T11:34:39.730Z,8.9
2019-02-25T11:35:45.673Z,8.9
2019-02-25T11:36:54.831Z,8.9
2019-02-25T11:38:02.242Z,8.9
2019-02-25T11:39:09.360Z,8.9
2019-02-25T11:40:09.587Z,8.9
2019-02-25T11:41:11.796Z,8.9
2019-02-25T11:42:20.592Z,8.9
2019-02-25T11:43:22.252Z,8.9
2019-02-25T11:44:30.974Z,9
2019-02-25T11:45:31.246Z,9
2019-02-25T11:46:31.144Z,9
2019-02-25T11:47:31.060Z,9
2019-02-25T11:48:31.408Z,8.9
2019-02-25T11:49:31.309Z,8.9
2019-02-25T11:50:31.197Z,9
2019-02-25T11:51:31.120Z,9
2019-02-25T11:52:31.008Z,9.3
2019-02-25T11:53:30.912Z,9.3
2019-02-25T11:54:30.818Z,9.4
2019-02-25T11:55:30.728Z,9.4
2019-02-25T11:56:31.757Z,9.5
2019-02-25T11:57:31.677Z,9.6
2019-02-25T11:58:31.998Z,9.6
2019-02-25T11:59:31.897Z,9.6
2019-02-25T12:00:31.795Z,9.6
2019-02-25T12:01:31.742Z,9.6
2019-02-25T12:02:31.704Z,9.6
2019-02-25T12:03:31.586Z,9.6
2019-02-25T12:04:31.466Z,9.6
2019-02-25T12:05:31.346Z,9.5
2019-02-25T12:06:31.245Z,9.5
2019-02-25T12:07:31.154Z,9.5
2019-02-25T12:08:31.515Z,9.5
2019-02-25T12:09:31.411Z,9.5
2019-02-25T12:10:31.319Z,9.5
2019-02-25T12:11:31.212Z,9.4
2019-02-25T12:12:31.130Z,9.4
2019-02-25T12:13:31.068Z,9.3
2019-02-25T12:14:30.952Z,9.3
2019-02-25T12:15:30.858Z,9.3
2019-02-25T12:16:30.804Z,9.3
2019-02-25T12:17:30.682Z,9.3
2019-02-25T12:18:31.012Z,9.3
2019-02-25T12:19:30.920Z,9.2
2019-02-25T12:20:30.816Z,9.2
2019-02-25T12:21:30.716Z,9.2
2019-02-25T12:22:30.599Z,9.2
2019-02-25T12:23:30.505Z,9.3
2019-02-25T12:24:30.410Z,9.3
2019-02-25T12:25:30.308Z,9.3
2019-02-25T12:26:30.199Z,9.4
2019-02-25T12:27:30.071Z,9.3
2019-02-25T12:28:30.412Z,9.2
2019-02-25T12:29:30.385Z,9.3
2019-02-25T12:30:30.366Z,9.3
2019-02-25T12:31:30.254Z,9.3
2019-02-25T12:32:30.127Z,9.2
2019-02-25T12:33:30.048Z,9.2
2019-02-25T12:34:29.946Z,9.2
2019-02-25T12:35:29.830Z,9.3
2019-02-25T12:36:29.720Z,9.3
2019-02-25T12:37:29.622Z,9.3
